createdAt,value
2023-05-02T00:00:07.361Z,98698.40
2023-05-02T00:02:30.166Z,98698.43
2023-05-02T00:04:34.092Z,98690.10
2023-05-02T00:06:37.033Z,98689.98
2023-05-02T00:08:40.518Z,98689.91
2023-05-02T00:10:43.126Z,98690.08
2023-05-02T00:12:46.917Z,98687.42
2023-05-02T00:14:49.507Z,98691.05
2023-05-02T00:16:52.200Z,98693.70
2023-05-02T00:18:55.622Z,98692.78
2023-05-02T00:20:58.301Z,98695.83
2023-05-02T00:23:00.973Z,98694.94
2023-05-02T00:25:04.373Z,98697.42
2023-05-02T00:27:08.424Z,98692.16
2023-05-02T00:29:12.589Z,98693.08
2023-05-02T00:31:16.673Z,98690.54
2023-05-02T00:33:19.667Z,98689.52
2023-05-02T00:35:22.182Z,98693.48
2023-05-02T00:37:29.814Z,98695.64
2023-05-02T00:39:37.243Z,98698.00
2023-05-02T00:41:41.563Z,98695.98
2023-05-02T00:43:44.475Z,98700.17
2023-05-02T00:45:48.318Z,98696.77
2023-05-02T00:47:53.153Z,98698.17
2023-05-02T00:49:57.870Z,98695.02
2023-05-02T00:52:02.587Z,98696.41
2023-05-02T00:54:06.201Z,98694.33
2023-05-02T00:56:09.990Z,98695.95
2023-05-02T00:58:16.846Z,98690.54
2023-05-02T01:00:20.223Z,98691.77
2023-05-02T01:02:29.422Z,98685.17
2023-05-02T01:05:11.930Z,98687.24
2023-05-02T01:07:43.645Z,98691.95
2023-05-02T01:10:05.868Z,98689.61
2023-05-02T01:12:33.418Z,98691.36
2023-05-02T01:14:50.777Z,98691.11
2023-05-02T01:16:56.710Z,98689.23
2023-05-02T01:19:05.965Z,98691.04
2023-05-02T01:21:12.057Z,98694.56
2023-05-02T01:23:31.141Z,98692.98
2023-05-02T01:25:53.880Z,98693.67
2023-05-02T01:28:29.932Z,98701.17
2023-05-02T01:30:37.214Z,98702.17
2023-05-02T01:32:41.633Z,98701.34
2023-05-02T01:34:46.715Z,98701.06
2023-05-02T01:36:52.036Z,98695.84
2023-05-02T01:38:56.973Z,98699.33
2023-05-02T01:41:05.296Z,98701.39
2023-05-02T01:43:11.545Z,98704.46
2023-05-02T01:45:15.740Z,98706.41
2023-05-02T01:47:21.540Z,98706.55
2023-05-02T01:49:25.888Z,98707.61
2023-05-02T01:51:32.904Z,98705.73
2023-05-02T01:53:35.788Z,98704.59
2023-05-02T01:55:45.287Z,98708.50
2023-05-02T01:57:52.031Z,98703.08
2023-05-02T01:59:59.337Z,98704.05
2023-05-02T02:02:04.609Z,98706.58
2023-05-02T02:04:10.332Z,98710.87
2023-05-02T02:06:14.488Z,98705.83
2023-05-02T02:08:17.461Z,98707.57
2023-05-02T02:10:22.614Z,98710.98
2023-05-02T02:12:30.248Z,98706.66
2023-05-02T02:14:43.328Z,98706.95
2023-05-02T02:16:48.729Z,98710.08
2023-05-02T02:18:55.023Z,98714.79
2023-05-02T02:20:59.023Z,98717.48
2023-05-02T02:23:07.353Z,98724.11
2023-05-02T02:25:15.876Z,98731.56
2023-05-02T02:27:20.471Z,98740.23
2023-05-02T02:29:26.726Z,98740.36
2023-05-02T02:31:35.055Z,98739.95
2023-05-02T02:33:42.758Z,98748.22
2023-05-02T02:35:53.860Z,98751.95
2023-05-02T02:38:07.948Z,98753.54
2023-05-02T02:40:24.715Z,98760.19
2023-05-02T02:42:44.538Z,98761.47
2023-05-02T02:44:47.154Z,98759.92
2023-05-02T02:47:27.316Z,98759.54
2023-05-02T02:49:50.077Z,98763.21
2023-05-02T02:52:02.974Z,98761.98
2023-05-02T02:54:27.675Z,98767.15
2023-05-02T02:56:40.524Z,98768.04
2023-05-02T02:58:58.269Z,98768.98
2023-05-02T03:01:06.329Z,98768.30
2023-05-02T03:03:10.695Z,98776.05
2023-05-02T03:05:14.111Z,98779.88
2023-05-02T03:07:20.408Z,98783.88
2023-05-02T03:09:23.233Z,98787.27
2023-05-02T03:11:28.309Z,98794.02
2023-05-02T03:13:32.966Z,98793.94
2023-05-02T03:15:54.113Z,98791.17
2023-05-02T03:18:00.158Z,98792.37
2023-05-02T03:20:05.719Z,98796.71
2023-05-02T03:22:08.700Z,98797.75
2023-05-02T03:24:12.866Z,98800.33
2023-05-02T03:26:16.752Z,98801.95
2023-05-02T03:28:19.894Z,98803.52
2023-05-02T03:30:23.185Z,98807.09
2023-05-02T03:32:28.133Z,98808.31
2023-05-02T03:34:30.957Z,98807.37
2023-05-02T03:36:34.692Z,98809.58
2023-05-02T03:38:38.394Z,98811.98
2023-05-02T03:40:41.949Z,98812.96
2023-05-02T03:42:46.346Z,98815.37
2023-05-02T03:44:56.067Z,98817.81
2023-05-02T03:46:59.147Z,98818.45
2023-05-02T03:49:04.151Z,98816.56
2023-05-02T03:51:10.170Z,98815.25
2023-05-02T03:53:18.434Z,98815.73
2023-05-02T03:55:26.846Z,98814.12
2023-05-02T03:57:32.019Z,98817.35
2023-05-02T03:59:40.147Z,98815.71
2023-05-02T04:01:44.355Z,98813.60
2023-05-02T04:03:51.724Z,98816.59
2023-05-02T04:05:56.643Z,98817.01
2023-05-02T04:08:02.660Z,98823.03
2023-05-02T04:10:06.930Z,98821.23
2023-05-02T04:12:15.816Z,98825.73
2023-05-02T04:14:22.274Z,98827.40
2023-05-02T04:16:28.273Z,98831.47
2023-05-02T04:18:31.974Z,98833.07
2023-05-02T04:20:38.579Z,98839.70
2023-05-02T04:22:42.112Z,98835.80
2023-05-02T04:24:45.435Z,98834.39
2023-05-02T04:26:49.767Z,98837.67
2023-05-02T04:28:53.310Z,98836.33
2023-05-02T04:30:56.746Z,98835.00
2023-05-02T04:33:02.539Z,98842.59
2023-05-02T04:35:10.873Z,98846.02
2023-05-02T04:37:14.237Z,98851.59
2023-05-02T04:39:20.260Z,98854.97
2023-05-02T04:41:32.772Z,98856.06
2023-05-02T04:43:42.581Z,98860.05
2023-05-02T04:45:48.774Z,98862.17
2023-05-02T04:48:01.029Z,98866.38
2023-05-02T04:50:04.524Z,98867.58
2023-05-02T04:52:08.034Z,98873.33
2023-05-02T04:54:13.405Z,98878.20
2023-05-02T04:56:18.850Z,98882.16
2023-05-02T04:58:22.645Z,98882.45
2023-05-02T05:00:32.351Z,98882.85
2023-05-02T05:02:37.867Z,98886.05
2023-05-02T05:04:40.859Z,98891.82
2023-05-02T05:06:43.758Z,98891.48
2023-05-02T05:08:51.351Z,98896.46
2023-05-02T05:10:54.334Z,98899.73
2023-05-02T05:12:57.973Z,98903.53
2023-05-02T05:15:01.370Z,98910.91
2023-05-02T05:17:05.424Z,98913.09
2023-05-02T05:19:12.394Z,98911.33
2023-05-02T05:21:15.782Z,98915.94
2023-05-02T05:23:20.344Z,98912.06
2023-05-02T05:25:23.524Z,98914.86
2023-05-02T05:27:28.696Z,98919.38
2023-05-02T05:29:33.452Z,98921.65
2023-05-02T05:31:36.315Z,98926.36
2023-05-02T05:33:41.633Z,98926.98
2023-05-02T05:35:46.067Z,98929.13
2023-05-02T05:37:48.632Z,98930.88
2023-05-02T05:39:55.299Z,98935.02
2023-05-02T05:42:01.468Z,98937.20
2023-05-02T05:44:05.824Z,98942.98
2023-05-02T05:46:12.243Z,98946.62
2023-05-02T05:48:15.224Z,98949.61
2023-05-02T05:50:20.915Z,98953.81
2023-05-02T05:52:23.951Z,98955.04
2023-05-02T05:54:28.994Z,98958.10
2023-05-02T05:56:31.612Z,98958.53
2023-05-02T05:58:44.896Z,98967.52
2023-05-02T06:00:50.598Z,98971.85
2023-05-02T06:02:53.865Z,98970.70
2023-05-02T06:05:07.629Z,98965.27
2023-05-02T06:07:11.278Z,98967.92
2023-05-02T06:09:15.508Z,98966.95
2023-05-02T06:11:21.869Z,98974.67
2023-05-02T06:13:27.395Z,98982.91
2023-05-02T06:15:34.775Z,98987.70
2023-05-02T06:17:37.684Z,98989.20
2023-05-02T06:19:41.292Z,98989.45
2023-05-02T06:21:44.378Z,98993.66
2023-05-02T06:23:47.126Z,98993.33
2023-05-02T06:25:50.276Z,98997.17
2023-05-02T06:27:52.894Z,99003.11
2023-05-02T06:29:55.511Z,99011.11
2023-05-02T06:32:00.583Z,99010.30
2023-05-02T06:34:05.335Z,99015.20
2023-05-02T06:36:07.943Z,99016.45
2023-05-02T06:38:10.720Z,99019.55
2023-05-02T06:40:15.182Z,99020.03
2023-05-02T06:42:20.773Z,99020.48
2023-05-02T06:44:24.012Z,99020.98
2023-05-02T06:46:29.849Z,99023.21
2023-05-02T06:48:32.535Z,99024.58
2023-05-02T06:50:36.362Z,99025.38
2023-05-02T06:52:40.487Z,99031.34
2023-05-02T06:54:43.067Z,99035.34
2023-05-02T06:56:47.889Z,99039.23
2023-05-02T06:58:58.201Z,99041.30
2023-05-02T07:01:00.880Z,99045.83
2023-05-02T07:03:05.153Z,99046.52
2023-05-02T07:05:08.927Z,99052.27
2023-05-02T07:07:12.158Z,99054.88
2023-05-02T07:09:15.728Z,99056.95
2023-05-02T07:11:21.172Z,99060.04
2023-05-02T07:13:23.829Z,99059.82
2023-05-02T07:15:29.666Z,99061.76
2023-05-02T07:17:32.393Z,99062.59
2023-05-02T07:19:36.752Z,99060.98
2023-05-02T07:21:39.527Z,99058.35
2023-05-02T07:23:42.582Z,99060.87
2023-05-02T07:25:45.871Z,99062.96
2023-05-02T07:27:49.280Z,99059.17
2023-05-02T07:29:54.236Z,99062.17
2023-05-02T07:31:58.286Z,99063.65
2023-05-02T07:34:02.814Z,99067.81
2023-05-02T07:36:10.139Z,99067.80
2023-05-02T07:38:13.125Z,99067.73
2023-05-02T07:40:18.649Z,99066.73
2023-05-02T07:42:22.525Z,99070.23
2023-05-02T07:44:26.811Z,99072.52
2023-05-02T07:46:30.311Z,99073.55
2023-05-02T07:48:35.304Z,99075.05
2023-05-02T07:50:37.897Z,99072.95
2023-05-02T07:52:40.661Z,99071.46
2023-05-02T07:54:43.540Z,99078.78
2023-05-02T07:56:47.257Z,99078.44
2023-05-02T07:58:51.872Z,99082.79
2023-05-02T08:00:55.161Z,99086.67
2023-05-02T08:02:58.203Z,99088.09
2023-05-02T08:05:01.013Z,99089.90
2023-05-02T08:07:05.427Z,99091.75
2023-05-02T08:09:12.013Z,99098.41
2023-05-02T08:11:14.784Z,99095.55
2023-05-02T08:13:18.224Z,99092.63
2023-05-02T08:15:20.923Z,99094.27
2023-05-02T08:17:24.364Z,99098.05
2023-05-02T08:19:28.033Z,99100.31
2023-05-02T08:21:32.178Z,99099.66
2023-05-02T08:23:34.788Z,99101.95
2023-05-02T08:25:38.076Z,99102.33
2023-05-02T08:27:41.512Z,99104.80
2023-05-02T08:29:44.068Z,99103.95
2023-05-02T08:31:46.791Z,99106.33
2023-05-02T08:33:49.810Z,99107.59
2023-05-02T08:35:53.236Z,99103.31
2023-05-02T08:37:56.613Z,99102.83
2023-05-02T08:40:00.669Z,99102.98
2023-05-02T08:42:08.297Z,99103.89
2023-05-02T08:44:12.574Z,99102.48
2023-05-02T08:46:17.823Z,99099.88
2023-05-02T08:48:21.724Z,99103.02
2023-05-02T08:50:25.145Z,99103.42
2023-05-02T08:52:29.756Z,99104.33
2023-05-02T08:54:34.313Z,99103.95
2023-05-02T08:56:38.980Z,99109.36
2023-05-02T08:58:42.333Z,99118.09
2023-05-02T09:00:48.810Z,99115.19
2023-05-02T09:03:06.387Z,99116.86
2023-05-02T09:05:12.361Z,99119.18
2023-05-02T09:07:15.802Z,99116.27
2023-05-02T09:09:19.221Z,99122.98
2023-05-02T09:11:26.335Z,99119.77
2023-05-02T09:13:51.757Z,99126.33
2023-05-02T09:16:02.514Z,99129.02
2023-05-02T09:18:05.479Z,99128.99
2023-05-02T09:20:08.951Z,99133.10
2023-05-02T09:22:12.152Z,99133.98
2023-05-02T09:24:20.750Z,99135.02
2023-05-02T09:26:32.119Z,99137.58
2023-05-02T09:28:45.330Z,99134.95
2023-05-02T09:30:48.380Z,99138.92
2023-05-02T09:32:53.625Z,99140.95
2023-05-02T09:35:09.806Z,99139.45
2023-05-02T09:37:36.227Z,99143.02
2023-05-02T09:39:39.028Z,99144.12
2023-05-02T09:41:45.772Z,99139.70
2023-05-02T09:44:02.335Z,99144.55
2023-05-02T09:46:08.348Z,99142.31
2023-05-02T09:48:12.543Z,99145.61
2023-05-02T09:50:37.761Z,99150.92
2023-05-02T09:52:41.536Z,99155.15
2023-05-02T09:54:46.765Z,99151.17
2023-05-02T09:56:56.820Z,99155.43
2023-05-02T09:59:16.178Z,99155.86
2023-05-02T10:01:21.418Z,99157.14
2023-05-02T10:03:27.044Z,99154.33
2023-05-02T10:05:31.363Z,99155.05
2023-05-02T10:07:35.488Z,99152.02
2023-05-02T10:09:46.613Z,99156.51
2023-05-02T10:11:54.768Z,99153.27
2023-05-02T10:13:59.912Z,99152.95
2023-05-02T10:16:05.591Z,99154.30
2023-05-02T10:18:18.295Z,99154.45
2023-05-02T10:20:27.035Z,99156.73
2023-05-02T10:22:32.885Z,99157.42
2023-05-02T10:24:36.385Z,99153.64
2023-05-02T10:26:39.625Z,99155.48
2023-05-02T10:28:43.207Z,99151.58
2023-05-02T10:30:46.507Z,99150.14
2023-05-02T10:32:49.482Z,99152.63
2023-05-02T10:34:56.642Z,99159.76
2023-05-02T10:37:02.259Z,99158.43
2023-05-02T10:39:07.135Z,99158.16
2023-05-02T10:41:17.994Z,99159.14
2023-05-02T10:43:22.214Z,99159.25
2023-05-02T10:45:36.171Z,99156.30
2023-05-02T10:47:39.083Z,99158.83
2023-05-02T10:50:03.962Z,99157.98
2023-05-02T10:52:30.758Z,99161.77
2023-05-02T10:54:36.052Z,99163.39
2023-05-02T10:57:03.484Z,99162.65
2023-05-02T10:59:27.067Z,99163.92
2023-05-02T11:01:30.474Z,99166.02
2023-05-02T11:04:02.659Z,99169.70
2023-05-02T11:06:09.927Z,99168.08
2023-05-02T11:08:23.124Z,99170.42
2023-05-02T11:10:28.485Z,99170.31
2023-05-02T11:13:05.147Z,99166.54
2023-05-02T11:15:11.824Z,99165.65
2023-05-02T11:17:15.559Z,99163.52
2023-05-02T11:19:20.268Z,99161.84
2023-05-02T11:21:28.690Z,99162.16
2023-05-02T11:23:33.722Z,99161.41
2023-05-02T11:25:39.386Z,99160.77
2023-05-02T11:27:46.793Z,99163.85
2023-05-02T11:29:54.357Z,99162.13
2023-05-02T11:32:01.081Z,99158.13
2023-05-02T11:34:09.460Z,99157.11
2023-05-02T11:36:12.600Z,99156.70
2023-05-02T11:38:20.187Z,99153.96
2023-05-02T11:40:29.540Z,99153.35
2023-05-02T11:42:32.442Z,99151.47
2023-05-02T11:44:59.929Z,99153.70
2023-05-02T11:47:04.183Z,99149.33
2023-05-02T11:49:09.328Z,99146.91
2023-05-02T11:51:13.902Z,99142.91
2023-05-02T11:53:23.714Z,99145.27
2023-05-02T11:55:27.194Z,99140.70
2023-05-02T11:57:34.034Z,99140.77
2023-05-02T11:59:55.712Z,99144.85
2023-05-02T12:02:01.815Z,99147.36
2023-05-02T12:04:08.531Z,99153.50
2023-05-02T12:06:13.074Z,99157.01
2023-05-02T12:08:27.635Z,99158.90
2023-05-02T12:10:38.309Z,99161.95
2023-05-02T12:12:44.416Z,99161.55
2023-05-02T12:14:47.342Z,99162.78
2023-05-02T12:16:52.710Z,99163.41
2023-05-02T12:18:58.337Z,99165.64
2023-05-02T12:21:01.087Z,99165.39
2023-05-02T12:23:12.176Z,99164.98
2023-05-02T12:25:15.495Z,99173.68
2023-05-02T12:27:18.869Z,99176.94
2023-05-02T12:29:37.674Z,99177.30
2023-05-02T12:31:41.232Z,99183.11
2023-05-02T12:33:44.020Z,99184.02
2023-05-02T12:35:47.687Z,99188.84
2023-05-02T12:37:50.455Z,99190.93
2023-05-02T12:39:56.453Z,99192.66
2023-05-02T12:42:02.807Z,99193.57
2023-05-02T12:44:07.459Z,99195.86
2023-05-02T12:46:11.844Z,99196.95
2023-05-02T12:48:32.021Z,99195.42
2023-05-02T12:50:39.727Z,99194.06
2023-05-02T12:52:59.101Z,99193.52
2023-05-02T12:55:29.350Z,99194.36
2023-05-02T12:57:32.024Z,99188.64
2023-05-02T12:59:34.689Z,99189.27
2023-05-02T13:01:37.972Z,99178.34
2023-05-02T13:03:44.099Z,99184.44
2023-05-02T13:05:49.388Z,99182.46
2023-05-02T13:07:52.942Z,99180.80
2023-05-02T13:09:57.638Z,99178.72
2023-05-02T13:12:01.193Z,99176.27
2023-05-02T13:14:05.986Z,99174.30
2023-05-02T13:16:09.166Z,99172.88
2023-05-02T13:18:13.429Z,99167.25
2023-05-02T13:20:16.554Z,99172.98
2023-05-02T13:22:20.455Z,99170.75
2023-05-02T13:24:23.079Z,99174.20
2023-05-02T13:26:26.415Z,99172.92
2023-05-02T13:28:33.487Z,99174.87
2023-05-02T13:30:37.930Z,99176.58
2023-05-02T13:32:40.924Z,99172.20
2023-05-02T13:34:45.419Z,99171.64
2023-05-02T13:36:49.848Z,99170.71
2023-05-02T13:38:52.728Z,99174.23
2023-05-02T13:40:55.573Z,99176.61
2023-05-02T13:42:59.007Z,99177.52
2023-05-02T13:45:05.580Z,99174.39
2023-05-02T13:47:08.373Z,99173.30
2023-05-02T13:49:11.062Z,99173.03
2023-05-02T13:51:13.678Z,99169.46
2023-05-02T13:53:16.267Z,99168.89
2023-05-02T13:55:21.700Z,99170.02
2023-05-02T13:57:24.801Z,99163.48
2023-05-02T13:59:27.984Z,99162.90
2023-05-02T14:01:31.393Z,99161.58
2023-05-02T14:03:34.223Z,99162.39
2023-05-02T14:05:37.333Z,99158.52
2023-05-02T14:07:40.113Z,99157.61
2023-05-02T14:09:42.875Z,99148.15
2023-05-02T14:11:49.427Z,99151.79
2023-05-02T14:13:52.929Z,99161.61
2023-05-02T14:15:55.603Z,99163.08
2023-05-02T14:17:58.943Z,99166.48
2023-05-02T14:20:01.871Z,99166.02
2023-05-02T14:22:07.995Z,99164.60
2023-05-02T14:24:12.679Z,99166.73
2023-05-02T14:26:16.075Z,99170.04
2023-05-02T14:28:19.881Z,99166.45
2023-05-02T14:30:23.062Z,99165.08
2023-05-02T14:32:26.389Z,99171.58
2023-05-02T14:34:33.601Z,99172.37
2023-05-02T14:36:37.337Z,99172.89
2023-05-02T14:38:39.903Z,99175.20
2023-05-02T14:40:49.965Z,99175.30
2023-05-02T14:42:54.136Z,99174.48
2023-05-02T14:44:59.488Z,99176.75
2023-05-02T14:47:03.400Z,99178.46
2023-05-02T14:49:06.476Z,99180.64
2023-05-02T14:51:09.066Z,99180.66
2023-05-02T14:53:14.313Z,99182.17
2023-05-02T14:55:18.792Z,99181.23
2023-05-02T14:57:25.701Z,99180.52
2023-05-02T14:59:29.706Z,99181.11
2023-05-02T15:01:35.079Z,99180.41
2023-05-02T15:03:56.512Z,99185.13
2023-05-02T15:06:03.884Z,99187.64
2023-05-02T15:08:06.911Z,99189.26
2023-05-02T15:10:12.793Z,99188.33
2023-05-02T15:12:16.239Z,99191.48
2023-05-02T15:14:23.827Z,99192.82
2023-05-02T15:16:30.199Z,99197.36
2023-05-02T15:18:34.092Z,99204.39
2023-05-02T15:20:36.725Z,99212.45
2023-05-02T15:22:39.658Z,99217.17
2023-05-02T15:24:45.039Z,99228.30
2023-05-02T15:26:47.702Z,99229.91
2023-05-02T15:28:51.068Z,99235.29
2023-05-02T15:30:54.195Z,99238.90
2023-05-02T15:32:58.803Z,99241.64
2023-05-02T15:35:01.962Z,99251.65
2023-05-02T15:37:05.071Z,99252.27
2023-05-02T15:39:10.461Z,99253.21
2023-05-02T15:41:13.136Z,99250.56
2023-05-02T15:43:16.756Z,99249.95
2023-05-02T15:45:22.787Z,99252.16
2023-05-02T15:47:27.431Z,99254.63
2023-05-02T15:49:33.244Z,99257.07
2023-05-02T15:51:36.464Z,99262.55
2023-05-02T15:53:44.060Z,99263.58
2023-05-02T15:55:49.095Z,99267.27
2023-05-02T15:57:53.233Z,99266.22
2023-05-02T15:59:56.322Z,99271.45
2023-05-02T16:02:03.110Z,99270.71
2023-05-02T16:04:07.166Z,99276.98
2023-05-02T16:06:11.318Z,99277.46
2023-05-02T16:08:14.799Z,99279.15
2023-05-02T16:10:18.432Z,99278.17
2023-05-02T16:12:21.560Z,99278.77
2023-05-02T16:14:26.107Z,99276.54
2023-05-02T16:16:30.155Z,99277.42
2023-05-02T16:18:34.330Z,99277.66
2023-05-02T16:20:37.046Z,99282.21
2023-05-02T16:22:39.561Z,99288.13
2023-05-02T16:24:42.813Z,99288.67
2023-05-02T16:26:46.665Z,99287.60
2023-05-02T16:28:49.249Z,99281.00
2023-05-02T16:30:52.946Z,99284.27
2023-05-02T16:32:55.801Z,99284.07
2023-05-02T16:34:59.207Z,99289.37
2023-05-02T16:37:03.965Z,99293.80
2023-05-02T16:39:08.260Z,99298.64
2023-05-02T16:41:11.058Z,99297.92
2023-05-02T16:43:15.214Z,99300.08
2023-05-02T16:45:18.272Z,99291.98
2023-05-02T16:47:21.505Z,99292.25
2023-05-02T16:49:24.378Z,99286.77
2023-05-02T16:51:27.969Z,99284.66
2023-05-02T16:53:31.627Z,99287.30
2023-05-02T16:55:35.549Z,99283.02
2023-05-02T16:57:39.130Z,99287.19
2023-05-02T16:59:44.112Z,99286.06
2023-05-02T17:01:47.255Z,99287.70
2023-05-02T17:03:50.182Z,99290.83
2023-05-02T17:06:00.778Z,99297.31
2023-05-02T17:08:09.203Z,99307.42
2023-05-02T17:10:12.955Z,99314.36
2023-05-02T17:12:22.263Z,99318.67
2023-05-02T17:14:24.952Z,99323.27
2023-05-02T17:16:27.592Z,99322.56
2023-05-02T17:18:31.911Z,99326.17
2023-05-02T17:20:36.199Z,99328.31
2023-05-02T17:22:39.385Z,99331.12
2023-05-02T17:24:43.859Z,99335.68
2023-05-02T17:26:46.982Z,99337.02
2023-05-02T17:28:53.591Z,99337.71
2023-05-02T17:31:00.099Z,99336.73
2023-05-02T17:33:02.919Z,99340.33
2023-05-02T17:35:06.920Z,99343.26
2023-05-02T17:37:09.614Z,99347.77
2023-05-02T17:39:13.534Z,99350.48
2023-05-02T17:41:16.391Z,99350.17
2023-05-02T17:43:20.055Z,99355.46
2023-05-02T17:45:23.364Z,99363.56
2023-05-02T17:47:26.537Z,99365.95
2023-05-02T17:49:33.558Z,99369.13
2023-05-02T17:51:36.615Z,99373.02
2023-05-02T17:53:39.932Z,99377.73
2023-05-02T17:55:43.991Z,99381.60
2023-05-02T17:57:47.008Z,99388.59
2023-05-02T17:59:56.666Z,99393.30
2023-05-02T18:02:15.882Z,99395.40
2023-05-02T18:04:27.384Z,99398.80
2023-05-02T18:06:34.898Z,99401.66
2023-05-02T18:08:38.275Z,99406.98
2023-05-02T18:10:48.610Z,99403.32
2023-05-02T18:12:55.906Z,99404.20
2023-05-02T18:15:00.561Z,99410.27
2023-05-02T18:17:09.893Z,99407.95
2023-05-02T18:19:15.622Z,99412.46
2023-05-02T18:21:25.616Z,99414.43
2023-05-02T18:23:30.266Z,99417.15
2023-05-02T18:25:37.843Z,99419.27
2023-05-02T18:27:42.484Z,99426.54
2023-05-02T18:29:47.496Z,99426.57
2023-05-02T18:32:00.322Z,99427.39
2023-05-02T18:34:04.709Z,99428.23
2023-05-02T18:36:09.140Z,99433.55
2023-05-02T18:38:15.641Z,99439.16
2023-05-02T18:40:19.086Z,99441.17
2023-05-02T18:42:23.280Z,99442.52
2023-05-02T18:44:26.224Z,99445.31
2023-05-02T18:46:32.302Z,99447.57
2023-05-02T18:48:36.459Z,99451.05
2023-05-02T18:50:41.177Z,99454.71
2023-05-02T18:52:45.366Z,99460.73
2023-05-02T18:54:52.814Z,99459.86
2023-05-02T18:56:58.546Z,99460.90
2023-05-02T18:59:02.873Z,99464.23
2023-05-02T19:01:11.789Z,99458.77
2023-05-02T19:03:16.664Z,99460.88
2023-05-02T19:05:22.167Z,99460.99
2023-05-02T19:07:29.816Z,99464.50
2023-05-02T19:09:37.103Z,99471.98
2023-05-02T19:11:46.647Z,99473.05
2023-05-02T19:13:51.129Z,99479.16
2023-05-02T19:15:55.241Z,99482.77
2023-05-02T19:17:59.128Z,99487.72
2023-05-02T19:20:08.095Z,99488.55
2023-05-02T19:22:13.946Z,99491.71
2023-05-02T19:24:22.784Z,99487.60
2023-05-02T19:26:28.534Z,99491.17
2023-05-02T19:28:37.945Z,99497.08
2023-05-02T19:30:43.509Z,99500.73
2023-05-02T19:32:51.695Z,99506.23
2023-05-02T19:34:55.679Z,99512.31
2023-05-02T19:37:00.750Z,99521.66
2023-05-02T19:39:05.906Z,99525.27
2023-05-02T19:41:10.367Z,99529.55
2023-05-02T19:43:14.792Z,99534.55
2023-05-02T19:45:24.976Z,99535.89
2023-05-02T19:47:33.354Z,99539.04
2023-05-02T19:49:37.562Z,99545.79
2023-05-02T19:51:44.563Z,99549.63
2023-05-02T19:53:55.461Z,99552.13
2023-05-02T19:56:10.058Z,99556.63
2023-05-02T19:58:14.886Z,99559.86
2023-05-02T20:00:20.824Z,99562.86
2023-05-02T20:02:33.935Z,99568.23
2023-05-02T20:04:40.291Z,99568.59
2023-05-02T20:06:44.816Z,99572.38
2023-05-02T20:08:48.753Z,99571.63
2023-05-02T20:11:02.233Z,99573.55
2023-05-02T20:13:05.873Z,99572.27
2023-05-02T20:15:09.967Z,99577.80
2023-05-02T20:17:14.073Z,99577.98
2023-05-02T20:19:24.228Z,99583.15
2023-05-02T20:21:36.362Z,99587.06
2023-05-02T20:23:45.462Z,99589.15
2023-05-02T20:25:48.753Z,99596.84
2023-05-02T20:27:56.447Z,99596.27
2023-05-02T20:30:02.749Z,99599.89
2023-05-02T20:32:24.515Z,99597.13
2023-05-02T20:34:30.819Z,99599.10
2023-05-02T20:36:36.324Z,99605.78
2023-05-02T20:38:48.997Z,99608.45
2023-05-02T20:40:54.268Z,99608.10
2023-05-02T20:43:04.013Z,99610.44
2023-05-02T20:45:08.360Z,99615.80
2023-05-02T20:47:13.683Z,99620.29
2023-05-02T20:49:18.800Z,99619.69
2023-05-02T20:51:23.441Z,99618.50
2023-05-02T20:53:26.741Z,99613.98
2023-05-02T20:55:31.720Z,99613.08
2023-05-02T20:57:37.915Z,99611.12
2023-05-02T20:59:49.714Z,99613.58
2023-05-02T21:01:59.574Z,99611.44
2023-05-02T21:04:06.911Z,99613.23
2023-05-02T21:06:11.849Z,99613.84
2023-05-02T21:08:16.067Z,99611.02
2023-05-02T21:10:19.649Z,99608.42
2023-05-02T21:12:23.409Z,99607.62
2023-05-02T21:14:32.279Z,99610.36
2023-05-02T21:16:41.612Z,99607.21
2023-05-02T21:18:49.346Z,99607.35
2023-05-02T21:20:55.846Z,99605.98
2023-05-02T21:23:12.835Z,99600.59
2023-05-02T21:25:17.078Z,99599.87
2023-05-02T21:27:23.672Z,99599.40
2023-05-02T21:29:29.899Z,99601.70
2023-05-02T21:31:33.644Z,99602.52
2023-05-02T21:33:41.101Z,99603.09
2023-05-02T21:35:45.226Z,99605.91
2023-05-02T21:37:49.913Z,99605.18
2023-05-02T21:39:52.896Z,99605.69
2023-05-02T21:41:58.778Z,99608.52
2023-05-02T21:44:04.635Z,99609.83
2023-05-02T21:46:16.108Z,99609.84
2023-05-02T21:48:22.782Z,99610.23
2023-05-02T21:50:30.026Z,99610.76
2023-05-02T21:52:34.546Z,99607.45
2023-05-02T21:54:54.033Z,99602.19
2023-05-02T21:57:04.176Z,99597.56
2023-05-02T21:59:09.303Z,99599.33
2023-05-02T22:01:14.905Z,99592.94
2023-05-02T22:03:20.980Z,99594.59
2023-05-02T22:05:33.724Z,99598.95
2023-05-02T22:07:38.432Z,99596.93
2023-05-02T22:09:46.394Z,99593.48
2023-05-02T22:11:54.673Z,99597.20
2023-05-02T22:14:03.647Z,99600.56
2023-05-02T22:16:18.280Z,99607.30
2023-05-02T22:18:23.081Z,99607.34
2023-05-02T22:20:29.107Z,99613.49
2023-05-02T22:22:32.871Z,99616.45
2023-05-02T22:24:39.505Z,99614.83
2023-05-02T22:26:43.554Z,99616.84
2023-05-02T22:28:48.429Z,99620.90
2023-05-02T22:30:52.577Z,99618.64
2023-05-02T22:32:57.035Z,99620.67
2023-05-02T22:35:00.308Z,99622.16
2023-05-02T22:37:09.562Z,99624.14
2023-05-02T22:39:16.224Z,99623.90
2023-05-02T22:41:24.608Z,99628.58
2023-05-02T22:43:28.326Z,99626.59
2023-05-02T22:45:34.403Z,99629.61
2023-05-02T22:47:41.883Z,99625.73
2023-05-02T22:49:47.634Z,99624.69
2023-05-02T22:51:52.255Z,99628.02
2023-05-02T22:53:55.544Z,99628.64
2023-05-02T22:56:00.008Z,99627.79
2023-05-02T22:58:03.732Z,99629.39
2023-05-02T23:00:11.202Z,99629.64
2023-05-02T23:02:14.767Z,99632.55
2023-05-02T23:04:19.297Z,99631.60
2023-05-02T23:06:24.564Z,99636.52
2023-05-02T23:08:28.648Z,99634.73
2023-05-02T23:10:32.570Z,99637.19
2023-05-02T23:12:39.785Z,99637.45
2023-05-02T23:14:48.004Z,99640.27
2023-05-02T23:16:54.038Z,99636.88
2023-05-02T23:18:59.686Z,99639.84
2023-05-02T23:21:05.539Z,99641.29
2023-05-02T23:23:11.694Z,99639.96
2023-05-02T23:25:16.755Z,99640.56
2023-05-02T23:27:22.504Z,99643.48
2023-05-02T23:29:26.172Z,99643.43
2023-05-02T23:31:31.566Z,99648.41
2023-05-02T23:33:36.803Z,99644.34
2023-05-02T23:35:41.245Z,99648.19
2023-05-02T23:37:48.187Z,99645.16
2023-05-02T23:39:55.129Z,99641.60
2023-05-02T23:42:01.878Z,99639.33
2023-05-02T23:44:10.253Z,99638.94
2023-05-02T23:46:13.512Z,99633.73
2023-05-02T23:48:21.086Z,99634.60
2023-05-02T23:50:29.725Z,99638.42
2023-05-02T23:52:37.002Z,99636.28
2023-05-02T23:54:43.224Z,99640.39
2023-05-02T23:56:48.579Z,99638.23
2023-05-02T23:58:54.007Z,99636.31
